createdAt,value
2023-03-04T00:02:20.420Z,68.88
2023-03-04T00:04:50.974Z,62.45
2023-03-04T00:07:25.751Z,75.60
2023-03-04T00:09:57.534Z,84.93
2023-03-04T00:12:27.600Z,60.13
2023-03-04T00:14:57.547Z,74.40
2023-03-04T00:20:17.863Z,85.10
2023-03-04T00:22:50.177Z,85.43
2023-03-04T00:25:37.964Z,90.90
2023-03-04T00:28:18.246Z,81.45
2023-03-04T00:30:48.640Z,74.65
2023-03-04T00:33:25.798Z,94.90
2023-03-04T00:35:56.216Z,91.28
2023-03-04T00:38:33.486Z,81.45
2023-03-04T00:41:10.279Z,88.90
2023-03-04T00:43:38.326Z,87.32
2023-03-04T00:46:08.258Z,98.20
2023-03-04T00:48:38.760Z,84.70
2023-03-04T00:51:07.132Z,97.88
2023-03-04T00:53:35.222Z,89.78
2023-03-04T00:56:04.902Z,88.10
2023-03-04T00:58:33.009Z,85.40
2023-03-04T01:01:01.063Z,89.57
2023-03-04T01:03:31.379Z,93.93
2023-03-04T01:06:00.779Z,86.28
2023-03-04T01:08:28.787Z,89.68
2023-03-04T01:10:56.750Z,90.60
2023-03-04T01:13:26.126Z,91.32
2023-03-04T01:15:54.150Z,97.65
2023-03-04T01:18:22.199Z,90.70
2023-03-04T01:20:50.872Z,94.60
2023-03-04T01:23:28.121Z,93.88
2023-03-04T01:26:03.653Z,102.85
2023-03-04T01:28:36.677Z,97.18
2023-03-04T01:31:09.914Z,96.60
2023-03-04T01:33:41.120Z,85.03
2023-03-04T01:36:12.237Z,78.65
2023-03-04T01:38:40.824Z,96.07
2023-03-04T01:41:12.995Z,81.75
2023-03-04T01:43:45.207Z,83.80
2023-03-04T01:46:28.333Z,94.22
2023-03-04T01:49:02.833Z,91.03
2023-03-04T01:51:31.699Z,95.53
2023-03-04T01:54:00.284Z,89.28
2023-03-04T01:56:36.445Z,101.82
2023-03-04T01:59:20.610Z,89.13
2023-03-04T02:01:50.875Z,97.30
2023-03-04T02:04:21.515Z,86.38
2023-03-04T02:06:51.115Z,92.97
2023-03-04T02:09:20.043Z,94.90
2023-03-04T02:11:49.241Z,102.20
2023-03-04T02:14:22.233Z,90.60
2023-03-04T02:16:58.464Z,95.05
2023-03-04T02:19:41.269Z,90.72
2023-03-04T02:22:09.352Z,77.75
2023-03-04T02:24:43.240Z,95.72
2023-03-04T02:27:15.503Z,93.35
2023-03-04T02:29:43.576Z,86.90
2023-03-04T02:32:14.103Z,99.38
2023-03-04T02:34:48.062Z,89.20
2023-03-04T02:37:18.957Z,106.15
2023-03-04T02:39:50.182Z,95.45
2023-03-04T02:42:22.395Z,95.70
2023-03-04T02:44:50.609Z,106.60
2023-03-04T02:47:19.768Z,99.32
2023-03-04T02:49:48.293Z,93.30
2023-03-04T02:52:20.435Z,99.15
2023-03-04T02:54:48.475Z,103.18
2023-03-04T02:57:19.608Z,86.82
2023-03-04T02:59:47.569Z,84.57
2023-03-04T03:02:15.585Z,95.18
2023-03-04T03:04:43.860Z,94.55
2023-03-04T03:07:27.974Z,78.97
2023-03-04T03:09:58.587Z,92.88
2023-03-04T03:12:31.654Z,92.55
2023-03-04T03:15:03.234Z,82.60
2023-03-04T03:17:46.191Z,96.18
2023-03-04T03:20:21.267Z,94.88
2023-03-04T03:22:51.771Z,101.53
2023-03-04T03:25:34.496Z,93.90
2023-03-04T03:28:04.608Z,87.88
2023-03-04T03:30:33.689Z,94.13
2023-03-04T03:33:04.019Z,76.65
2023-03-04T03:35:35.063Z,91.10
2023-03-04T03:38:03.031Z,88.55
2023-03-04T03:40:32.279Z,83.80
2023-03-04T03:43:00.229Z,92.97
2023-03-04T03:45:29.710Z,85.60
2023-03-04T03:47:57.648Z,85.50
2023-03-04T03:50:28.032Z,87.20
2023-03-04T03:52:58.198Z,90.65
2023-03-04T03:55:26.275Z,88.57
2023-03-04T03:57:54.272Z,103.60
2023-03-04T04:00:22.740Z,86.35
2023-03-04T04:02:52.713Z,95.88
2023-03-04T04:05:21.119Z,79.85
2023-03-04T04:07:53.698Z,86.90
2023-03-04T04:10:22.491Z,105.65
2023-03-04T04:12:50.741Z,93.28
2023-03-04T04:15:19.978Z,95.72
2023-03-04T04:17:48.015Z,104.82
2023-03-04T04:20:18.008Z,100.10
2023-03-04T04:22:45.977Z,100.90
2023-03-04T04:25:13.962Z,83.00
2023-03-04T04:27:44.819Z,97.70
2023-03-04T04:30:13.829Z,104.65
2023-03-04T04:32:42.122Z,89.28
2023-03-04T04:35:10.627Z,98.63
2023-03-04T04:37:40.052Z,93.57
2023-03-04T04:40:09.166Z,102.30
2023-03-04T04:42:37.281Z,92.22
2023-03-04T04:45:06.008Z,97.43
2023-03-04T04:47:33.906Z,95.70
2023-03-04T04:50:02.230Z,98.32
2023-03-04T04:52:33.761Z,105.13
2023-03-04T04:55:03.846Z,79.30
2023-03-04T04:57:35.265Z,109.63
2023-03-04T05:00:10.459Z,56.93
2023-03-04T05:02:39.898Z,87.13
2023-03-04T05:05:09.465Z,101.95
2023-03-04T05:07:40.441Z,100.25
2023-03-04T05:10:13.189Z,83.65
2023-03-04T05:12:42.257Z,100.93
2023-03-04T05:15:13.798Z,98.40
2023-03-04T05:17:43.809Z,87.33
2023-03-04T05:20:15.054Z,96.15
2023-03-04T05:22:46.673Z,108.10
2023-03-04T05:25:19.941Z,80.65
2023-03-04T05:27:48.524Z,95.38
2023-03-04T05:30:20.218Z,89.38
2023-03-04T05:32:53.260Z,78.38
2023-03-04T05:35:28.973Z,93.32
2023-03-04T05:37:58.748Z,93.15
2023-03-04T05:40:30.569Z,85.47
2023-03-04T05:42:59.131Z,75.35
2023-03-04T05:45:28.521Z,85.05
2023-03-04T05:47:59.887Z,87.65
2023-03-04T05:50:33.368Z,85.00
2023-03-04T05:53:05.098Z,94.75
2023-03-04T05:55:37.066Z,63.38
2023-03-04T05:58:05.688Z,76.47
2023-03-04T06:00:34.053Z,79.68
2023-03-04T06:03:07.286Z,78.05
2023-03-04T06:05:41.572Z,77.80
2023-03-04T06:08:10.221Z,80.40
2023-03-04T06:10:40.092Z,81.38
2023-03-04T06:13:13.416Z,84.32
2023-03-04T06:15:47.829Z,76.45
2023-03-04T06:18:16.294Z,79.55
2023-03-04T06:20:47.641Z,82.05
2023-03-04T06:23:22.514Z,84.05
2023-03-04T06:25:55.462Z,88.35
2023-03-04T06:28:24.732Z,75.40
2023-03-04T06:30:53.466Z,77.35
2023-03-04T06:33:28.752Z,75.78
2023-03-04T06:36:08.234Z,75.53
2023-03-04T06:38:42.561Z,78.00
2023-03-04T06:41:23.748Z,85.18
2023-03-04T06:43:58.892Z,76.45
2023-03-04T06:46:30.671Z,76.93
2023-03-04T06:49:06.358Z,81.25
2023-03-04T06:51:36.742Z,69.90
2023-03-04T06:54:14.949Z,90.57
2023-03-04T06:56:51.830Z,78.72
2023-03-04T06:59:28.164Z,76.13
2023-03-04T07:02:06.595Z,71.80
2023-03-04T07:04:37.597Z,77.30
2023-03-04T07:07:12.068Z,68.90
2023-03-04T07:09:40.345Z,73.20
2023-03-04T07:12:10.188Z,72.07
2023-03-04T07:14:42.339Z,75.03
2023-03-04T07:17:10.628Z,78.82
2023-03-04T07:19:42.755Z,74.63
2023-03-04T07:22:12.360Z,80.03
2023-03-04T07:24:40.688Z,81.43
2023-03-04T07:27:10.398Z,72.05
2023-03-04T07:29:38.445Z,79.00
2023-03-04T07:32:09.450Z,77.00
2023-03-04T07:34:37.730Z,77.30
2023-03-04T07:37:07.644Z,80.57
2023-03-04T07:39:37.483Z,73.43
2023-03-04T07:42:05.815Z,66.07
2023-03-04T07:44:35.237Z,70.78
2023-03-04T07:47:05.221Z,61.85
2023-03-04T07:49:33.519Z,65.18
2023-03-04T07:52:06.500Z,75.30
2023-03-04T07:54:34.863Z,72.18
2023-03-04T07:57:03.242Z,77.45
2023-03-04T07:59:34.327Z,66.65
2023-03-04T08:02:07.184Z,67.97
2023-03-04T08:04:35.599Z,64.72
2023-03-04T08:07:04.064Z,65.35
2023-03-04T08:09:40.144Z,74.57
2023-03-04T08:12:11.389Z,66.90
2023-03-04T08:14:40.738Z,77.18
2023-03-04T08:17:10.630Z,67.22
2023-03-04T08:19:39.832Z,68.75
2023-03-04T08:22:20.510Z,74.28
2023-03-04T08:25:04.089Z,74.13
2023-03-04T08:27:37.718Z,73.47
2023-03-04T08:30:10.504Z,63.03
2023-03-04T08:32:53.283Z,65.90
2023-03-04T08:36:00.329Z,66.00
2023-03-04T08:38:43.731Z,66.40
2023-03-04T08:41:47.148Z,73.40
2023-03-04T08:44:45.612Z,72.63
2023-03-04T08:50:32.832Z,71.68
2023-03-04T08:53:17.060Z,67.75
2023-03-04T08:55:56.223Z,69.30
2023-03-04T08:59:08.080Z,41.65
2023-03-04T09:01:59.085Z,64.90
2023-03-04T09:04:44.837Z,63.28
2023-03-04T09:07:59.969Z,58.90
2023-03-04T09:10:42.339Z,61.28
2023-03-04T09:13:31.906Z,63.50
2023-03-04T09:16:26.363Z,65.90
2023-03-04T09:19:02.497Z,55.03
2023-03-04T09:21:36.890Z,58.05
2023-03-04T09:24:20.362Z,60.15
2023-03-04T09:27:11.329Z,60.47
2023-03-04T09:29:54.258Z,62.83
2023-03-04T09:32:44.500Z,56.38
2023-03-04T09:35:56.578Z,53.47
2023-03-04T09:38:31.433Z,54.15
2023-03-04T09:41:22.243Z,51.47
2023-03-04T09:44:12.325Z,54.53
2023-03-04T09:46:49.309Z,50.88
2023-03-04T09:49:34.112Z,53.10
2023-03-04T09:52:19.230Z,55.17
2023-03-04T09:55:19.135Z,53.35
2023-03-04T09:58:05.162Z,56.13
2023-03-04T10:00:40.309Z,51.03
2023-03-04T10:03:16.529Z,45.75
2023-03-04T10:05:55.736Z,43.75
2023-03-04T10:08:42.590Z,48.70
2023-03-04T10:11:15.924Z,51.30
2023-03-04T10:13:53.010Z,51.08
2023-03-04T10:16:26.397Z,48.22
2023-03-04T10:18:59.629Z,45.13
2023-03-04T10:21:35.041Z,52.10
2023-03-04T10:24:06.676Z,43.42
2023-03-04T10:26:37.527Z,47.77
2023-03-04T10:29:09.310Z,44.92
2023-03-04T10:31:38.550Z,46.92
2023-03-04T10:34:07.344Z,41.38
2023-03-04T10:36:51.025Z,42.85
2023-03-04T10:39:32.379Z,42.35
2023-03-04T10:42:02.831Z,41.92
2023-03-04T10:44:34.596Z,41.42
2023-03-04T10:47:02.783Z,38.73
2023-03-04T10:49:33.034Z,37.88
2023-03-04T10:52:20.969Z,49.50
2023-03-04T10:54:51.936Z,42.25
2023-03-04T10:57:22.308Z,41.05
2023-03-04T10:59:58.102Z,42.30
2023-03-04T11:02:29.364Z,41.08
2023-03-04T11:05:17.985Z,42.00
2023-03-04T11:07:56.975Z,36.50
2023-03-04T11:10:27.551Z,44.00
2023-03-04T11:13:01.368Z,42.30
2023-03-04T11:15:49.341Z,48.10
2023-03-04T11:18:23.433Z,45.67
2023-03-04T11:20:55.100Z,42.25
2023-03-04T11:23:37.335Z,36.70
2023-03-04T11:26:10.332Z,38.90
2023-03-04T11:28:48.679Z,44.78
2023-03-04T11:31:22.990Z,39.47
2023-03-04T11:33:56.325Z,46.72
2023-03-04T11:36:34.302Z,39.55
2023-03-04T11:39:09.663Z,31.40
2023-03-04T11:41:40.121Z,32.70
2023-03-04T11:44:09.906Z,39.50
2023-03-04T11:47:04.533Z,45.20
2023-03-04T11:50:04.722Z,31.35
2023-03-04T11:53:00.454Z,37.35
2023-03-04T11:55:39.972Z,32.78
2023-03-04T11:58:24.144Z,41.22
2023-03-04T12:00:59.216Z,36.33
2023-03-04T12:04:05.366Z,36.78
2023-03-04T12:06:57.046Z,34.72
2023-03-04T12:09:47.058Z,32.38
2023-03-04T12:12:36.005Z,29.27
2023-03-04T12:15:16.703Z,38.28
2023-03-04T12:18:25.028Z,31.80
2023-03-04T12:21:32.177Z,31.83
2023-03-04T12:24:33.260Z,38.35
2023-03-04T12:27:11.100Z,27.25
2023-03-04T12:29:47.016Z,32.65
2023-03-04T12:32:23.701Z,31.48
2023-03-04T12:35:12.158Z,34.17
2023-03-04T12:38:09.278Z,40.47
2023-03-04T12:40:49.283Z,27.33
2023-03-04T12:43:42.198Z,33.40
2023-03-04T12:49:02.037Z,35.30
2023-03-04T12:51:37.087Z,29.35
2023-03-04T12:54:18.116Z,31.58
2023-03-04T12:56:50.974Z,34.97
2023-03-04T12:59:21.053Z,30.27
2023-03-04T13:01:59.450Z,31.58
2023-03-04T13:04:41.601Z,37.42
2023-03-04T13:07:30.269Z,31.63
2023-03-04T13:10:06.261Z,28.40
2023-03-04T13:12:49.592Z,30.00
2023-03-04T13:15:36.892Z,31.95
2023-03-04T13:18:21.097Z,32.72
2023-03-04T13:21:07.803Z,31.35
2023-03-04T13:23:36.241Z,26.33
2023-03-04T13:26:21.425Z,23.10
2023-03-04T13:29:12.039Z,26.17
2023-03-04T13:32:11.182Z,26.05
2023-03-04T13:34:54.189Z,28.75
2023-03-04T13:37:33.433Z,25.70
2023-03-04T13:40:36.972Z,26.60
2023-03-04T13:43:28.528Z,19.77
2023-03-04T13:45:59.286Z,24.17
2023-03-04T13:48:46.485Z,26.63
2023-03-04T13:51:31.858Z,29.30
2023-03-04T13:54:19.110Z,21.58
2023-03-04T13:56:50.084Z,20.80
2023-03-04T13:59:29.735Z,16.52
2023-03-04T14:02:01.420Z,19.33
2023-03-04T14:04:37.417Z,18.77
2023-03-04T14:07:19.020Z,17.48
2023-03-04T14:09:59.846Z,19.63
2023-03-04T14:12:32.977Z,17.30
2023-03-04T14:15:05.335Z,21.27
2023-03-04T14:17:36.910Z,17.70
2023-03-04T14:20:06.149Z,19.10
2023-03-04T14:22:41.103Z,19.23
2023-03-04T14:25:23.056Z,18.33
2023-03-04T14:27:54.191Z,19.95
2023-03-04T14:30:40.735Z,19.73
2023-03-04T14:33:15.702Z,20.35
2023-03-04T14:35:48.948Z,21.73
2023-03-04T14:38:20.835Z,17.95
2023-03-04T14:40:52.727Z,16.75
2023-03-04T14:43:22.714Z,19.17
2023-03-04T14:45:55.787Z,27.90
2023-03-04T14:48:28.957Z,19.92
2023-03-04T14:50:58.406Z,15.70
2023-03-04T14:53:27.583Z,21.60
2023-03-04T14:56:05.077Z,16.77
2023-03-04T14:58:34.405Z,21.70
2023-03-04T15:01:16.580Z,14.18
2023-03-04T15:03:47.797Z,17.83
2023-03-04T15:06:20.785Z,18.92
2023-03-04T15:08:56.714Z,15.10
2023-03-04T15:11:29.164Z,14.95
2023-03-04T15:14:03.602Z,21.35
2023-03-04T15:17:03.200Z,20.10
2023-03-04T15:19:37.579Z,17.02
2023-03-04T15:22:07.983Z,16.27
2023-03-04T15:24:40.471Z,16.70
2023-03-04T15:27:21.806Z,13.52
2023-03-04T15:30:10.270Z,17.55
2023-03-04T15:32:56.218Z,16.60
2023-03-04T15:35:40.649Z,19.00
2023-03-04T15:38:14.226Z,15.18
2023-03-04T15:40:44.039Z,21.00
2023-03-04T15:43:17.664Z,15.80
2023-03-04T15:45:46.043Z,22.23
2023-03-04T15:48:19.751Z,15.98
2023-03-04T15:50:50.738Z,17.13
2023-03-04T15:53:24.650Z,19.08
2023-03-04T15:55:52.887Z,23.15
2023-03-04T15:58:21.480Z,19.02
2023-03-04T16:00:55.472Z,26.02
2023-03-04T16:03:29.799Z,24.00
2023-03-04T16:06:00.744Z,24.92
2023-03-04T16:08:34.440Z,25.60
2023-03-04T16:11:02.515Z,25.67
2023-03-04T16:13:30.548Z,21.60
2023-03-04T16:16:02.073Z,23.80
2023-03-04T16:18:31.544Z,20.92
2023-03-04T16:21:05.406Z,20.00
2023-03-04T16:23:40.941Z,24.73
2023-03-04T16:26:13.709Z,28.95
2023-03-04T16:28:43.656Z,26.88
2023-03-04T16:31:13.624Z,27.05
2023-03-04T16:33:43.457Z,25.92
2023-03-04T16:36:16.153Z,33.42
2023-03-04T16:38:44.527Z,26.58
2023-03-04T16:41:14.270Z,24.83
2023-03-04T16:43:45.609Z,32.05
2023-03-04T16:46:18.359Z,25.55
2023-03-04T16:48:48.634Z,26.48
2023-03-04T16:51:20.022Z,28.70
2023-03-04T16:53:55.045Z,24.23
2023-03-04T16:56:26.014Z,27.90
2023-03-04T16:58:56.188Z,43.17
2023-03-04T17:01:26.841Z,27.70
2023-03-04T17:03:57.279Z,24.13
2023-03-04T17:06:27.892Z,24.65
2023-03-04T17:08:57.509Z,26.02
2023-03-04T17:11:26.032Z,24.08
2023-03-04T17:13:58.000Z,27.25
2023-03-04T17:16:26.684Z,20.30
2023-03-04T17:18:55.093Z,25.70
2023-03-04T17:21:25.730Z,23.40
2023-03-04T17:24:11.590Z,27.13
2023-03-04T17:27:00.820Z,23.88
2023-03-04T17:29:38.974Z,24.75
2023-03-04T17:32:17.249Z,21.48
2023-03-04T17:35:18.599Z,21.33
2023-03-04T17:38:14.282Z,26.35
2023-03-04T17:41:01.655Z,27.45
2023-03-04T17:43:37.087Z,27.13
2023-03-04T17:46:35.521Z,24.48
2023-03-04T17:49:21.961Z,25.50
2023-03-04T17:59:47.513Z,26.02
2023-03-04T18:03:29.994Z,28.77
2023-03-04T18:09:36.959Z,25.38
2023-03-04T18:12:50.094Z,26.95
2023-03-04T18:18:45.775Z,24.80
2023-03-04T18:21:51.675Z,37.83
2023-03-04T18:25:25.007Z,32.47
2023-03-04T18:31:57.101Z,35.55
2023-03-04T18:34:48.892Z,30.75
2023-03-04T18:37:34.293Z,34.65
2023-03-04T18:40:52.502Z,33.40
2023-03-04T18:43:45.443Z,40.15
2023-03-04T18:47:08.020Z,31.73
2023-03-04T18:52:36.733Z,42.00
2023-03-04T18:55:34.077Z,33.05
2023-03-04T18:59:09.379Z,35.03
2023-03-04T19:01:32.279Z,35.75
2023-03-04T19:04:28.362Z,30.75
2023-03-04T19:07:30.288Z,33.00
2023-03-04T19:10:17.037Z,30.73
2023-03-04T19:15:54.798Z,36.65
2023-03-04T19:22:15.860Z,40.53
2023-03-04T19:25:45.263Z,33.25
2023-03-04T19:31:56.309Z,36.90
2023-03-04T19:41:07.938Z,38.53
2023-03-04T19:44:10.591Z,37.95
2023-03-04T19:46:57.068Z,33.25
2023-03-04T19:49:50.718Z,38.00
2023-03-04T19:52:56.264Z,35.85
2023-03-04T19:56:12.470Z,39.35
2023-03-04T19:58:58.544Z,32.38
2023-03-04T20:01:56.853Z,39.25
2023-03-04T20:04:37.313Z,37.47
2023-03-04T20:07:22.441Z,38.58
2023-03-04T20:13:22.301Z,43.33
2023-03-04T20:15:54.310Z,32.95
2023-03-04T20:18:54.816Z,44.97
2023-03-04T20:21:56.554Z,35.25
2023-03-04T20:24:35.763Z,37.35
2023-03-04T20:27:15.757Z,30.48
2023-03-04T20:29:58.240Z,34.38
2023-03-04T20:32:48.752Z,36.97
2023-03-04T20:35:43.397Z,31.92
2023-03-04T20:41:52.969Z,38.17
2023-03-04T20:44:36.311Z,35.35
2023-03-04T20:47:25.009Z,34.38
2023-03-04T20:50:06.446Z,32.55
2023-03-04T20:52:44.557Z,33.50
2023-03-04T20:55:31.314Z,32.83
2023-03-04T20:58:34.273Z,37.35
2023-03-04T21:01:19.261Z,39.35
2023-03-04T21:04:09.429Z,35.90
2023-03-04T21:07:06.513Z,35.33
2023-03-04T21:12:56.938Z,40.67
2023-03-04T21:15:24.976Z,28.85
2023-03-04T21:17:52.987Z,34.58
2023-03-04T21:20:21.064Z,31.30
2023-03-04T21:22:52.088Z,29.15
2023-03-04T21:25:23.087Z,44.42
2023-03-04T21:27:51.104Z,34.45
2023-03-04T21:30:19.335Z,37.20
2023-03-04T21:32:47.448Z,34.00
2023-03-04T21:35:16.181Z,33.13
2023-03-04T21:37:44.117Z,33.80
2023-03-04T21:40:13.563Z,35.65
2023-03-04T21:42:42.965Z,38.65
2023-03-04T21:45:13.320Z,32.60
2023-03-04T21:47:41.602Z,35.60
2023-03-04T21:50:10.676Z,33.72
2023-03-04T21:52:38.821Z,32.53
2023-03-04T21:55:07.139Z,36.92
2023-03-04T21:57:35.215Z,34.78
2023-03-04T22:00:06.556Z,29.38
2023-03-04T22:02:34.840Z,41.10
2023-03-04T22:05:02.856Z,29.83
2023-03-04T22:07:31.011Z,31.23
2023-03-04T22:09:59.562Z,28.55
2023-03-04T22:12:28.127Z,30.55
2023-03-04T22:14:56.078Z,32.40
2023-03-04T22:17:25.653Z,36.60
2023-03-04T22:19:53.756Z,28.13
2023-03-04T22:22:21.838Z,33.45
2023-03-04T22:24:53.239Z,32.08
2023-03-04T22:27:21.640Z,35.38
2023-03-04T22:29:51.806Z,27.90
2023-03-04T22:32:24.160Z,31.92
2023-03-04T22:34:54.224Z,38.90
2023-03-04T22:37:28.228Z,29.90
2023-03-04T22:39:58.631Z,25.98
2023-03-04T22:42:30.193Z,31.20
2023-03-04T22:44:58.984Z,39.27
2023-03-04T22:47:31.156Z,26.08
2023-03-04T22:50:04.417Z,30.35
2023-03-04T22:52:33.295Z,33.85
2023-03-04T22:55:09.029Z,30.15
2023-03-04T22:57:40.070Z,28.23
2023-03-04T23:00:19.190Z,32.15
2023-03-04T23:02:48.111Z,30.55
2023-03-04T23:05:22.841Z,28.75
2023-03-04T23:07:54.627Z,39.22
2023-03-04T23:10:25.417Z,33.17
2023-03-04T23:12:56.269Z,33.13
2023-03-04T23:15:31.667Z,27.27
2023-03-04T23:18:05.699Z,26.20
2023-03-04T23:20:35.840Z,27.75
2023-03-04T23:23:03.972Z,33.95
2023-03-04T23:25:35.726Z,26.90
2023-03-04T23:28:04.277Z,26.90
2023-03-04T23:30:34.769Z,29.77
2023-03-04T23:33:03.570Z,28.65
2023-03-04T23:35:40.463Z,34.15
2023-03-04T23:38:11.569Z,28.15
2023-03-04T23:40:43.905Z,24.20
2023-03-04T23:43:12.445Z,30.05
2023-03-04T23:45:40.569Z,30.38
2023-03-04T23:48:09.177Z,31.50
2023-03-04T23:50:39.416Z,26.17
2023-03-04T23:53:14.247Z,29.15
2023-03-04T23:55:45.928Z,21.85
2023-03-04T23:58:17.175Z,30.38
